createdAt,value
2023-01-07T00:01:38.820Z,0.80
2023-01-07T00:04:08.502Z,1.00
2023-01-07T00:06:38.257Z,0.80
2023-01-07T00:09:07.859Z,0.87
2023-01-07T00:11:37.330Z,0.60
2023-01-07T00:14:06.778Z,0.70
2023-01-07T00:16:37.644Z,0.80
2023-01-07T00:19:07.110Z,0.80
2023-01-07T00:21:35.936Z,0.70
2023-01-07T00:24:05.244Z,0.80
2023-01-07T00:26:34.670Z,1.00
2023-01-07T00:29:03.255Z,0.80
2023-01-07T00:31:33.129Z,0.80
2023-01-07T00:34:09.422Z,0.70
2023-01-07T00:36:39.762Z,0.80
2023-01-07T00:39:09.324Z,0.90
2023-01-07T00:41:37.936Z,0.80
2023-01-07T00:44:07.361Z,0.80
2023-01-07T00:46:36.037Z,0.70
2023-01-07T00:49:06.004Z,0.93
2023-01-07T00:51:34.550Z,0.77
2023-01-07T00:54:03.068Z,0.90
2023-01-07T00:56:33.462Z,0.87
2023-01-07T00:59:02.036Z,0.80
2023-01-07T01:01:30.759Z,0.80
2023-01-07T01:03:59.353Z,1.00
2023-01-07T01:06:29.286Z,0.80
2023-01-07T01:08:57.900Z,0.80
2023-01-07T01:11:26.435Z,0.80
2023-01-07T01:13:54.969Z,0.80
2023-01-07T01:16:23.684Z,0.90
2023-01-07T01:18:52.332Z,0.90
2023-01-07T01:21:20.940Z,0.90
2023-01-07T01:23:51.422Z,0.60
2023-01-07T01:26:20.023Z,0.70
2023-01-07T01:28:48.579Z,0.70
2023-01-07T01:31:17.197Z,0.70
2023-01-07T01:33:45.785Z,0.70
2023-01-07T01:36:14.362Z,0.80
2023-01-07T01:38:43.263Z,0.70
2023-01-07T01:41:14.200Z,0.70
2023-01-07T01:43:45.306Z,0.67
2023-01-07T01:46:14.695Z,0.70
2023-01-07T01:48:46.992Z,0.80
2023-01-07T01:51:17.414Z,0.73
2023-01-07T01:53:46.113Z,0.70
2023-01-07T01:56:17.888Z,0.67
2023-01-07T01:58:48.280Z,0.80
2023-01-07T02:01:17.503Z,0.90
2023-01-07T02:03:46.641Z,0.63
2023-01-07T02:06:20.496Z,0.60
2023-01-07T02:08:49.087Z,0.83
2023-01-07T02:11:30.828Z,0.70
2023-01-07T02:14:10.352Z,0.80
2023-01-07T02:16:41.130Z,0.80
2023-01-07T02:19:16.811Z,0.67
2023-01-07T02:21:50.995Z,0.70
2023-01-07T02:24:44.035Z,0.70
2023-01-07T02:27:27.623Z,0.70
2023-01-07T02:30:10.992Z,0.70
2023-01-07T02:32:49.800Z,0.70
2023-01-07T02:35:24.674Z,0.80
2023-01-07T02:37:59.738Z,0.70
2023-01-07T02:40:31.452Z,0.80
2023-01-07T02:43:06.940Z,0.90
2023-01-07T02:45:40.930Z,0.77
2023-01-07T02:48:12.638Z,0.83
2023-01-07T02:50:41.256Z,0.83
2023-01-07T02:53:11.923Z,0.80
2023-01-07T02:55:46.796Z,0.80
2023-01-07T02:58:23.776Z,0.90
2023-01-07T03:01:02.194Z,1.00
2023-01-07T03:03:37.502Z,1.20
2023-01-07T03:06:16.296Z,1.00
2023-01-07T03:08:50.885Z,1.10
2023-01-07T03:11:20.689Z,1.00
2023-01-07T03:13:50.160Z,0.90
2023-01-07T03:16:20.204Z,1.10
2023-01-07T03:18:52.035Z,1.00
2023-01-07T03:21:21.749Z,0.90
2023-01-07T03:23:52.414Z,0.93
2023-01-07T03:26:24.114Z,1.10
2023-01-07T03:28:53.954Z,0.90
2023-01-07T03:31:23.358Z,0.90
2023-01-07T03:33:54.900Z,0.90
2023-01-07T03:36:25.203Z,0.87
2023-01-07T03:38:54.502Z,0.90
2023-01-07T03:41:42.948Z,0.90
2023-01-07T03:44:11.454Z,0.97
2023-01-07T03:46:40.257Z,0.90
2023-01-07T03:49:10.176Z,1.30
2023-01-07T03:51:38.815Z,1.00
2023-01-07T03:54:07.443Z,1.10
2023-01-07T03:56:36.067Z,0.93
2023-01-07T03:59:04.918Z,1.10
2023-01-07T04:01:33.511Z,1.00
2023-01-07T04:04:03.430Z,0.90
2023-01-07T04:06:33.556Z,1.10
2023-01-07T04:09:02.210Z,1.10
2023-01-07T04:11:30.727Z,1.10
2023-01-07T04:14:00.770Z,0.77
2023-01-07T04:16:29.428Z,0.93
2023-01-07T04:18:58.157Z,0.90
2023-01-07T04:21:26.789Z,0.90
2023-01-07T04:23:56.714Z,0.80
2023-01-07T04:26:25.307Z,0.90
2023-01-07T04:28:53.858Z,1.00
2023-01-07T04:31:22.504Z,0.97
2023-01-07T04:33:51.135Z,0.97
2023-01-07T04:36:19.649Z,0.90
2023-01-07T04:38:48.490Z,0.90
2023-01-07T04:41:18.401Z,0.90
2023-01-07T04:43:46.967Z,0.93
2023-01-07T04:46:15.577Z,0.87
2023-01-07T04:48:44.159Z,1.00
2023-01-07T04:51:12.752Z,0.87
2023-01-07T04:53:41.365Z,0.70
2023-01-07T04:56:09.996Z,1.00
2023-01-07T04:58:39.933Z,0.70
2023-01-07T05:01:08.822Z,0.90
2023-01-07T05:03:37.516Z,0.83
2023-01-07T05:06:06.193Z,0.77
2023-01-07T05:08:34.730Z,1.00
2023-01-07T05:11:04.740Z,0.90
2023-01-07T05:13:35.270Z,0.80
2023-01-07T05:16:05.402Z,0.90
2023-01-07T05:18:33.925Z,0.93
2023-01-07T05:21:02.519Z,0.80
2023-01-07T05:23:31.065Z,0.90
2023-01-07T05:25:59.693Z,0.70
2023-01-07T05:28:28.264Z,0.90
2023-01-07T05:30:56.865Z,0.80
2023-01-07T05:33:26.780Z,1.00
2023-01-07T05:35:55.343Z,0.90
2023-01-07T05:38:23.863Z,0.83
2023-01-07T05:40:52.487Z,0.80
2023-01-07T05:43:21.551Z,1.13
2023-01-07T05:45:50.180Z,1.00
2023-01-07T05:48:18.775Z,0.90
2023-01-07T05:50:48.699Z,1.00
2023-01-07T05:53:17.210Z,1.20
2023-01-07T05:55:45.869Z,0.80
2023-01-07T05:58:14.469Z,1.00
2023-01-07T06:00:43.042Z,0.90
2023-01-07T06:03:11.567Z,1.10
2023-01-07T06:05:40.238Z,0.90
2023-01-07T06:08:10.289Z,0.97
2023-01-07T06:10:38.930Z,0.90
2023-01-07T06:13:07.543Z,0.90
2023-01-07T06:15:36.187Z,1.10
2023-01-07T06:18:04.850Z,1.00
2023-01-07T06:20:34.741Z,1.20
2023-01-07T06:23:04.978Z,0.90
2023-01-07T06:25:34.945Z,1.10
2023-01-07T06:28:03.617Z,1.00
2023-01-07T06:30:32.209Z,1.10
2023-01-07T06:33:01.221Z,0.97
2023-01-07T06:35:29.808Z,0.90
2023-01-07T06:37:58.352Z,0.87
2023-01-07T06:40:26.911Z,1.13
2023-01-07T06:42:56.875Z,1.00
2023-01-07T06:45:25.552Z,0.90
2023-01-07T06:47:55.860Z,0.97
2023-01-07T06:50:24.635Z,0.90
2023-01-07T06:52:53.186Z,1.00
2023-01-07T06:55:21.728Z,1.00
2023-01-07T06:57:50.301Z,0.90
2023-01-07T07:00:20.497Z,0.97
2023-01-07T07:02:49.128Z,0.90
2023-01-07T07:05:17.853Z,0.90
2023-01-07T07:07:46.439Z,0.83
2023-01-07T07:10:15.027Z,0.83
2023-01-07T07:12:43.762Z,0.90
2023-01-07T07:15:12.769Z,0.80
2023-01-07T07:17:42.716Z,0.90
2023-01-07T07:20:12.204Z,0.80
2023-01-07T07:22:45.580Z,0.90
2023-01-07T07:25:14.352Z,0.90
2023-01-07T07:27:43.036Z,0.80
2023-01-07T07:30:12.224Z,1.13
2023-01-07T07:32:40.734Z,0.83
2023-01-07T07:35:11.160Z,0.90
2023-01-07T07:37:39.791Z,0.87
2023-01-07T07:40:09.431Z,0.60
2023-01-07T07:43:10.724Z,0.93
2023-01-07T07:45:27.959Z,0.70
2023-01-07T07:47:56.617Z,0.90
2023-01-07T07:50:27.361Z,0.97
2023-01-07T07:52:57.032Z,0.80
2023-01-07T07:55:26.359Z,0.90
2023-01-07T07:57:55.406Z,0.80
2023-01-07T08:00:24.146Z,0.90
2023-01-07T08:02:52.715Z,1.00
2023-01-07T08:05:21.414Z,1.20
2023-01-07T08:07:51.724Z,1.17
2023-01-07T08:10:20.720Z,1.20
2023-01-07T08:12:49.545Z,1.00
2023-01-07T08:15:18.176Z,0.90
2023-01-07T08:17:46.720Z,0.93
2023-01-07T08:20:15.275Z,1.00
2023-01-07T08:22:43.887Z,1.07
2023-01-07T08:25:13.822Z,0.90
2023-01-07T08:27:42.344Z,1.10
2023-01-07T08:30:11.703Z,0.90
2023-01-07T08:32:40.206Z,1.10
2023-01-07T08:35:09.321Z,1.20
2023-01-07T08:37:37.879Z,1.13
2023-01-07T08:40:07.027Z,1.30
2023-01-07T08:42:36.988Z,1.20
2023-01-07T08:45:05.877Z,1.10
2023-01-07T08:47:34.407Z,1.00
2023-01-07T08:50:03.129Z,1.10
2023-01-07T08:52:31.804Z,1.20
2023-01-07T08:55:00.346Z,1.20
2023-01-07T08:57:28.929Z,1.30
2023-01-07T08:59:58.835Z,1.07
2023-01-07T09:02:27.501Z,1.23
2023-01-07T09:04:56.089Z,1.50
2023-01-07T09:07:24.672Z,1.83
2023-01-07T09:09:53.223Z,1.30
2023-01-07T09:12:21.856Z,1.27
2023-01-07T09:14:50.458Z,1.47
2023-01-07T09:17:21.028Z,1.70
2023-01-07T09:19:50.544Z,1.60
2023-01-07T09:22:19.152Z,2.20
2023-01-07T09:24:48.077Z,1.67
2023-01-07T09:27:17.117Z,1.67
2023-01-07T09:29:45.705Z,1.67
2023-01-07T09:32:14.255Z,1.60
2023-01-07T09:34:44.134Z,1.50
2023-01-07T09:37:12.715Z,1.50
2023-01-07T09:39:41.266Z,1.30
2023-01-07T09:42:14.319Z,1.03
2023-01-07T09:44:52.402Z,1.00
2023-01-07T09:47:23.030Z,1.10
2023-01-07T09:49:54.832Z,1.07
2023-01-07T09:52:26.149Z,0.90
2023-01-07T09:54:57.148Z,1.03
2023-01-07T09:57:27.667Z,0.97
2023-01-07T09:59:56.207Z,0.97
2023-01-07T10:02:32.386Z,1.10
2023-01-07T10:05:06.593Z,0.90
2023-01-07T10:07:37.868Z,0.97
2023-01-07T10:10:10.383Z,0.90
2023-01-07T10:12:42.094Z,0.80
2023-01-07T10:15:19.162Z,0.80
2023-01-07T10:17:59.361Z,1.10
2023-01-07T10:20:33.224Z,1.10
2023-01-07T10:23:05.375Z,1.13
2023-01-07T10:25:35.871Z,0.90
2023-01-07T10:28:06.315Z,1.27
2023-01-07T10:30:37.638Z,1.17
2023-01-07T10:33:16.381Z,1.00
2023-01-07T10:35:48.279Z,1.03
2023-01-07T10:38:19.894Z,1.10
2023-01-07T10:40:51.132Z,0.90
2023-01-07T10:43:27.865Z,0.80
2023-01-07T10:46:05.415Z,0.90
2023-01-07T10:48:57.436Z,0.87
2023-01-07T10:51:40.447Z,1.03
2023-01-07T10:54:12.896Z,0.80
2023-01-07T10:56:43.103Z,0.87
2023-01-07T10:59:15.030Z,0.90
2023-01-07T11:01:46.191Z,1.00
2023-01-07T11:04:16.378Z,1.00
2023-01-07T11:06:49.307Z,0.97
2023-01-07T11:09:19.790Z,1.10
2023-01-07T11:11:48.753Z,0.90
2023-01-07T11:14:20.839Z,1.10
2023-01-07T11:16:51.651Z,1.20
2023-01-07T11:19:21.167Z,1.20
2023-01-07T11:21:52.160Z,1.13
2023-01-07T11:24:30.478Z,1.40
2023-01-07T11:27:03.774Z,1.50
2023-01-07T11:29:36.713Z,1.37
2023-01-07T11:32:05.993Z,1.60
2023-01-07T11:34:35.604Z,1.40
2023-01-07T11:37:06.364Z,1.70
2023-01-07T11:39:35.836Z,1.50
2023-01-07T11:42:25.679Z,1.70
2023-01-07T11:45:08.678Z,1.73
2023-01-07T11:47:38.768Z,1.60
2023-01-07T11:50:09.444Z,1.40
2023-01-07T11:52:39.336Z,1.63
2023-01-07T11:55:16.614Z,1.57
2023-01-07T11:57:58.723Z,1.70
2023-01-07T12:00:32.139Z,1.60
2023-01-07T12:03:02.114Z,1.60
2023-01-07T12:05:31.117Z,1.60
2023-01-07T12:08:01.486Z,1.50
2023-01-07T12:10:31.932Z,1.40
2023-01-07T12:13:01.271Z,1.60
2023-01-07T12:15:30.825Z,1.60
2023-01-07T12:18:12.156Z,1.50
2023-01-07T12:21:00.358Z,1.50
2023-01-07T12:23:36.542Z,1.50
2023-01-07T12:26:09.711Z,1.63
2023-01-07T12:28:48.143Z,1.67
2023-01-07T12:31:22.200Z,1.63
2023-01-07T12:33:58.408Z,1.43
2023-01-07T12:36:32.033Z,1.50
2023-01-07T12:39:03.954Z,1.20
2023-01-07T12:41:33.662Z,1.50
2023-01-07T12:44:03.652Z,1.60
2023-01-07T12:46:37.322Z,1.50
2023-01-07T12:49:08.859Z,1.47
2023-01-07T12:51:40.635Z,1.70
2023-01-07T12:54:15.981Z,1.70
2023-01-07T12:56:48.670Z,1.57
2023-01-07T12:59:46.449Z,1.57
2023-01-07T13:02:15.612Z,1.50
2023-01-07T13:04:50.604Z,1.40
2023-01-07T13:07:21.267Z,1.40
2023-01-07T13:09:54.080Z,1.40
2023-01-07T13:12:44.156Z,1.20
2023-01-07T13:15:21.472Z,1.20
2023-01-07T13:17:50.946Z,1.27
2023-01-07T13:20:33.569Z,1.40
2023-01-07T13:23:02.621Z,1.50
2023-01-07T13:25:37.985Z,1.50
2023-01-07T13:28:25.010Z,1.53
2023-01-07T13:31:02.519Z,1.60
2023-01-07T13:33:36.246Z,1.40
2023-01-07T13:36:09.337Z,1.30
2023-01-07T13:38:54.437Z,1.53
2023-01-07T13:41:34.872Z,1.30
2023-01-07T13:44:11.141Z,1.13
2023-01-07T13:46:41.129Z,1.30
2023-01-07T13:49:22.927Z,1.40
2023-01-07T13:51:52.553Z,1.77
2023-01-07T13:54:36.042Z,1.57
2023-01-07T13:57:35.754Z,1.60
2023-01-07T14:00:06.955Z,1.57
2023-01-07T14:02:50.511Z,1.57
2023-01-07T14:05:25.455Z,1.57
2023-01-07T14:07:56.409Z,1.47
2023-01-07T14:10:27.357Z,1.40
2023-01-07T14:13:13.660Z,1.60
2023-01-07T14:15:54.921Z,1.50
2023-01-07T14:18:44.361Z,1.87
2023-01-07T14:21:19.428Z,1.70
2023-01-07T14:23:54.292Z,1.50
2023-01-07T14:26:28.598Z,1.50
2023-01-07T14:29:17.503Z,1.70
2023-01-07T14:31:47.508Z,1.60
2023-01-07T14:34:20.574Z,1.60
2023-01-07T14:37:04.947Z,1.60
2023-01-07T14:39:34.350Z,1.90
2023-01-07T14:42:17.849Z,2.03
2023-01-07T14:44:46.531Z,1.60
2023-01-07T14:47:17.028Z,1.60
2023-01-07T14:50:00.451Z,1.60
2023-01-07T14:52:43.925Z,1.70
2023-01-07T14:55:26.298Z,2.10
2023-01-07T14:58:00.455Z,1.60
2023-01-07T15:00:37.948Z,1.70
2023-01-07T15:03:27.363Z,1.70
2023-01-07T15:06:10.389Z,1.50
2023-01-07T15:09:01.867Z,1.57
2023-01-07T15:11:49.145Z,1.80
2023-01-07T15:14:40.357Z,1.40
2023-01-07T15:17:09.996Z,1.70
2023-01-07T15:19:40.534Z,1.60
2023-01-07T15:22:15.500Z,1.47
2023-01-07T15:24:48.021Z,1.87
2023-01-07T15:27:20.196Z,1.77
2023-01-07T15:29:54.111Z,1.50
2023-01-07T15:32:28.273Z,1.60
2023-01-07T15:34:58.618Z,1.70
2023-01-07T15:37:27.303Z,2.20
2023-01-07T15:39:57.185Z,2.50
2023-01-07T15:42:27.203Z,1.90
2023-01-07T15:44:56.685Z,1.70
2023-01-07T15:47:32.529Z,1.63
2023-01-07T15:53:18.780Z,1.60
2023-01-07T15:55:55.413Z,1.80
2023-01-07T15:58:27.687Z,2.07
2023-01-07T16:00:59.173Z,2.40
2023-01-07T16:03:28.580Z,2.80
2023-01-07T16:05:59.210Z,1.90
2023-01-07T16:08:30.237Z,1.43
2023-01-07T16:10:59.693Z,1.60
2023-01-07T16:13:28.987Z,1.80
2023-01-07T16:15:58.379Z,1.73
2023-01-07T16:18:27.813Z,1.50
2023-01-07T16:20:58.494Z,1.53
2023-01-07T16:23:28.316Z,1.60
2023-01-07T16:26:00.067Z,1.80
2023-01-07T16:28:30.877Z,1.60
2023-01-07T16:30:59.998Z,1.83
2023-01-07T16:33:29.793Z,1.67
2023-01-07T16:36:01.037Z,1.70
2023-01-07T16:38:30.043Z,1.60
2023-01-07T16:41:00.518Z,1.70
2023-01-07T16:43:32.205Z,1.50
2023-01-07T16:46:10.936Z,1.60
2023-01-07T16:48:39.486Z,1.60
2023-01-07T16:51:29.419Z,1.57
2023-01-07T16:54:22.144Z,1.37
2023-01-07T16:56:52.669Z,1.40
2023-01-07T16:59:22.193Z,1.40
2023-01-07T17:01:50.861Z,1.63
2023-01-07T17:04:20.020Z,1.50
2023-01-07T17:06:48.664Z,1.57
2023-01-07T17:09:21.024Z,1.53
2023-01-07T17:11:51.854Z,1.50
2023-01-07T17:14:38.977Z,1.77
2023-01-07T17:17:20.064Z,1.73
2023-01-07T17:19:51.623Z,1.73
2023-01-07T17:22:30.466Z,1.60
2023-01-07T17:25:03.960Z,1.47
2023-01-07T17:27:32.914Z,1.77
2023-01-07T17:30:03.746Z,1.50
2023-01-07T17:32:35.498Z,1.60
2023-01-07T17:35:04.831Z,1.80
2023-01-07T17:37:33.608Z,1.80
2023-01-07T17:40:02.133Z,1.23
2023-01-07T17:42:51.934Z,1.57
2023-01-07T17:45:21.623Z,1.63
2023-01-07T17:47:52.771Z,1.70
2023-01-07T17:50:22.135Z,1.50
2023-01-07T17:52:51.659Z,1.90
2023-01-07T17:55:22.251Z,1.70
2023-01-07T17:57:50.903Z,2.00
2023-01-07T18:00:20.756Z,1.50
2023-01-07T18:02:49.857Z,1.50
2023-01-07T18:05:21.758Z,1.43
2023-01-07T18:07:50.771Z,1.90
2023-01-07T18:10:20.196Z,1.50
2023-01-07T18:12:48.021Z,1.77
2023-01-07T18:15:21.700Z,1.67
2023-01-07T18:17:50.330Z,1.50
2023-01-07T18:20:19.560Z,1.30
2023-01-07T18:22:50.418Z,1.27
2023-01-07T18:25:20.181Z,1.50
2023-01-07T18:27:49.178Z,1.70
2023-01-07T18:30:18.648Z,1.50
2023-01-07T18:32:48.098Z,1.40
2023-01-07T18:35:18.981Z,1.60
2023-01-07T18:37:50.821Z,1.30
2023-01-07T18:40:19.674Z,1.50
2023-01-07T18:42:48.285Z,1.60
2023-01-07T18:45:16.860Z,1.50
2023-01-07T18:47:45.934Z,1.40
2023-01-07T18:50:14.635Z,1.40
2023-01-07T18:52:43.739Z,1.20
2023-01-07T18:55:16.972Z,1.60
2023-01-07T18:57:45.547Z,1.47
2023-01-07T19:00:14.787Z,1.37
2023-01-07T19:02:43.488Z,1.60
2023-01-07T19:05:12.431Z,1.57
2023-01-07T19:07:41.371Z,1.57
2023-01-07T19:10:10.365Z,1.60
2023-01-07T19:12:40.266Z,2.00
2023-01-07T19:15:09.542Z,1.70
2023-01-07T19:17:38.274Z,1.60
2023-01-07T19:20:08.268Z,2.10
2023-01-07T19:22:37.249Z,1.87
2023-01-07T19:25:06.037Z,1.50
2023-01-07T19:27:34.644Z,2.53
2023-01-07T19:30:05.542Z,2.00
2023-01-07T19:32:34.198Z,1.80
2023-01-07T19:35:02.938Z,2.47
2023-01-07T19:37:31.547Z,1.77
2023-01-07T19:40:00.090Z,1.53
2023-01-07T19:42:28.725Z,2.00
2023-01-07T19:44:57.340Z,2.00
2023-01-07T19:47:27.295Z,1.70
2023-01-07T19:49:55.833Z,1.70
2023-01-07T19:52:24.648Z,1.50
2023-01-07T19:54:53.273Z,1.50
2023-01-07T19:57:21.960Z,1.40
2023-01-07T19:59:50.526Z,1.77
2023-01-07T20:02:19.221Z,1.80
2023-01-07T20:04:49.333Z,1.67
2023-01-07T20:07:18.005Z,1.20
2023-01-07T20:09:46.631Z,1.40
2023-01-07T20:12:15.224Z,1.30
2023-01-07T20:14:45.048Z,1.40
2023-01-07T20:17:13.606Z,1.73
2023-01-07T20:19:42.193Z,1.33
2023-01-07T20:22:12.203Z,1.30
2023-01-07T20:24:40.733Z,1.23
2023-01-07T20:27:09.379Z,1.87
2023-01-07T20:29:38.612Z,1.50
2023-01-07T20:32:08.187Z,1.53
2023-01-07T20:34:36.813Z,1.30
2023-01-07T20:37:05.465Z,1.17
2023-01-07T20:39:35.407Z,1.20
2023-01-07T20:42:05.350Z,1.17
2023-01-07T20:44:34.554Z,1.70
2023-01-07T20:47:04.727Z,1.20
2023-01-07T20:49:33.329Z,1.60
2023-01-07T20:52:02.063Z,1.23
2023-01-07T20:54:30.618Z,1.87
2023-01-07T20:57:00.604Z,1.07
2023-01-07T20:59:29.201Z,1.00
2023-01-07T21:01:57.923Z,0.90
2023-01-07T21:04:28.968Z,1.10
2023-01-07T21:06:57.520Z,0.90
2023-01-07T21:09:26.114Z,0.90
2023-01-07T21:11:54.688Z,0.80
2023-01-07T21:14:24.561Z,0.90
2023-01-07T21:16:53.218Z,0.97
2023-01-07T21:19:22.021Z,0.90
2023-01-07T21:21:50.584Z,0.83
2023-01-07T21:24:19.225Z,0.80
2023-01-07T21:26:48.893Z,1.10
2023-01-07T21:29:17.510Z,1.00
2023-01-07T21:31:47.444Z,1.10
2023-01-07T21:34:16.319Z,0.97
2023-01-07T21:36:44.899Z,1.00
2023-01-07T21:39:14.069Z,1.10
2023-01-07T21:41:42.666Z,0.97
2023-01-07T21:44:12.457Z,1.00
2023-01-07T21:46:41.095Z,1.00
2023-01-07T21:49:11.690Z,1.10
2023-01-07T21:51:40.258Z,1.00
2023-01-07T21:54:08.939Z,1.00
2023-01-07T21:56:37.557Z,1.10
2023-01-07T21:59:07.910Z,1.00
2023-01-07T22:01:36.607Z,0.93
2023-01-07T22:04:05.925Z,0.80
2023-01-07T22:06:37.581Z,1.00
2023-01-07T22:09:07.380Z,1.00
2023-01-07T22:11:38.517Z,0.90
2023-01-07T22:14:07.131Z,1.00
2023-01-07T22:16:35.990Z,0.93
2023-01-07T22:19:04.984Z,0.90
2023-01-07T22:21:33.713Z,0.90
2023-01-07T22:24:03.709Z,0.90
2023-01-07T22:26:32.322Z,0.80
2023-01-07T22:29:03.293Z,1.00
2023-01-07T22:31:33.312Z,1.03
2023-01-07T22:34:02.132Z,0.90
2023-01-07T22:36:32.735Z,1.10
2023-01-07T22:39:02.776Z,1.13
2023-01-07T22:41:33.624Z,1.20
2023-01-07T22:44:04.246Z,0.90
2023-01-07T22:46:33.676Z,0.90
2023-01-07T22:49:02.405Z,1.10
2023-01-07T22:51:31.936Z,1.00
2023-01-07T22:54:01.015Z,1.10
2023-01-07T22:56:29.840Z,1.00
2023-01-07T22:58:59.735Z,1.10
2023-01-07T23:01:28.592Z,1.10
2023-01-07T23:03:57.325Z,1.30
2023-01-07T23:06:26.769Z,1.43
2023-01-07T23:08:55.352Z,1.27
2023-01-07T23:11:41.811Z,1.30
2023-01-07T23:14:11.786Z,1.43
2023-01-07T23:16:40.380Z,1.40
2023-01-07T23:19:08.970Z,1.40
2023-01-07T23:21:40.417Z,1.50
2023-01-07T23:24:09.250Z,1.40
2023-01-07T23:26:38.327Z,1.30
2023-01-07T23:29:07.239Z,1.43
2023-01-07T23:31:37.722Z,1.57
2023-01-07T23:34:06.738Z,1.50
2023-01-07T23:36:37.228Z,1.43
2023-01-07T23:39:05.965Z,1.43
2023-01-07T23:41:34.663Z,1.40
2023-01-07T23:44:03.250Z,1.60
2023-01-07T23:46:31.809Z,1.70
2023-01-07T23:49:01.678Z,1.50
2023-01-07T23:51:30.235Z,1.80
2023-01-07T23:53:58.743Z,1.40
2023-01-07T23:56:27.430Z,1.50
2023-01-07T23:58:56.103Z,1.63
